createdAt,value
2018-04-12T00:01:48.341Z,16.85
2018-04-12T00:04:16.070Z,15.80
2018-04-12T00:06:43.593Z,16.87
2018-04-12T00:09:11.116Z,16.65
2018-04-12T00:11:38.671Z,21.65
2018-04-12T00:14:06.192Z,20.55
2018-04-12T00:16:33.716Z,20.75
2018-04-12T00:19:01.276Z,21.30
2018-04-12T00:21:28.827Z,16.40
2018-04-12T00:23:56.472Z,16.95
2018-04-12T00:26:24.020Z,17.83
2018-04-12T00:28:51.536Z,15.15
2018-04-12T00:31:19.080Z,19.15
2018-04-12T00:33:46.794Z,22.77
2018-04-12T00:36:14.312Z,21.77
2018-04-12T00:38:41.831Z,27.95
2018-04-12T00:41:09.388Z,22.50
2018-04-12T00:43:36.912Z,19.90
2018-04-12T00:46:04.432Z,18.10
2018-04-12T00:48:32.008Z,16.58
2018-04-12T00:50:59.523Z,18.45
2018-04-12T00:53:39.058Z,17.12
2018-04-12T00:56:07.061Z,22.15
2018-04-12T00:58:34.651Z,22.87
2018-04-12T01:01:02.424Z,19.45
2018-04-12T01:03:29.943Z,28.70
2018-04-12T01:05:57.459Z,21.92
2018-04-12T01:08:25.564Z,16.73
2018-04-12T01:10:53.076Z,21.23
2018-04-12T01:13:20.665Z,21.33
2018-04-12T01:15:48.396Z,24.75
2018-04-12T01:18:15.912Z,16.83
2018-04-12T01:20:43.441Z,16.27
2018-04-12T01:23:11.280Z,25.67
2018-04-12T01:25:38.792Z,21.05
2018-04-12T01:28:06.307Z,17.73
2018-04-12T01:30:34.175Z,19.65
2018-04-12T01:33:13.551Z,17.75
2018-04-12T01:35:41.394Z,22.75
2018-04-12T01:38:08.907Z,18.15
2018-04-12T01:40:36.429Z,20.70
2018-04-12T01:43:03.987Z,19.52
2018-04-12T01:45:31.632Z,18.48
2018-04-12T01:47:59.143Z,17.85
2018-04-12T01:50:26.691Z,21.73
2018-04-12T01:52:54.210Z,19.77
2018-04-12T01:55:21.728Z,16.83
2018-04-12T01:57:49.836Z,17.75
2018-04-12T02:00:17.355Z,18.62
2018-04-12T02:02:44.884Z,17.17
2018-04-12T02:05:12.436Z,18.80
2018-04-12T02:07:39.956Z,22.48
2018-04-12T02:10:07.480Z,21.12
2018-04-12T02:12:35.267Z,21.73
2018-04-12T02:15:03.245Z,15.15
2018-04-12T02:17:30.764Z,21.90
2018-04-12T02:19:59.081Z,15.80
2018-04-12T02:22:26.599Z,17.58
2018-04-12T02:24:54.168Z,22.92
2018-04-12T02:27:21.716Z,25.90
2018-04-12T02:29:49.237Z,21.20
2018-04-12T02:32:16.760Z,20.12
2018-04-12T02:34:44.641Z,17.87
2018-04-12T02:37:12.162Z,22.90
2018-04-12T02:39:40.519Z,20.50
2018-04-12T02:42:08.069Z,19.15
2018-04-12T02:44:35.584Z,19.87
2018-04-12T02:47:03.764Z,20.65
2018-04-12T02:49:31.524Z,18.60
2018-04-12T02:51:59.042Z,25.33
2018-04-12T02:54:26.551Z,20.08
2018-04-12T02:56:54.115Z,25.73
2018-04-12T02:59:21.636Z,21.95
2018-04-12T03:01:49.904Z,22.48
2018-04-12T03:04:18.135Z,25.52
2018-04-12T03:06:45.651Z,29.00
2018-04-12T03:09:13.177Z,23.33
2018-04-12T03:11:40.906Z,28.45
2018-04-12T03:14:08.419Z,21.37
2018-04-12T03:16:35.938Z,24.83
2018-04-12T03:19:03.504Z,25.55
2018-04-12T03:21:31.022Z,22.98
2018-04-12T03:23:58.544Z,24.05
2018-04-12T03:26:26.995Z,22.60
2018-04-12T03:28:54.516Z,23.92
2018-04-12T03:31:22.028Z,20.92
2018-04-12T03:33:49.578Z,22.92
2018-04-12T03:36:17.092Z,21.00
2018-04-12T03:38:44.607Z,22.95
2018-04-12T03:41:12.325Z,21.35
2018-04-12T03:43:41.409Z,26.48
2018-04-12T03:46:09.311Z,23.83
2018-04-12T03:48:37.015Z,23.52
2018-04-12T03:51:04.487Z,24.60
2018-04-12T03:53:31.999Z,22.77
2018-04-12T03:55:59.928Z,25.52
2018-04-12T03:58:27.442Z,31.33
2018-04-12T04:00:54.974Z,25.42
2018-04-12T04:03:22.592Z,21.37
2018-04-12T04:05:50.107Z,24.45
2018-04-12T04:08:17.624Z,23.73
2018-04-12T04:10:45.184Z,22.50
2018-04-12T04:13:12.697Z,21.33
2018-04-12T04:15:54.352Z,24.12
2018-04-12T04:18:33.712Z,21.40
2018-04-12T04:21:16.688Z,26.83
2018-04-12T04:23:44.205Z,17.20
2018-04-12T04:26:11.716Z,19.37
2018-04-12T04:28:39.480Z,31.40
2018-04-12T04:31:07.246Z,20.25
2018-04-12T04:33:34.892Z,22.77
2018-04-12T04:36:02.772Z,18.37
2018-04-12T04:38:30.284Z,18.35
2018-04-12T04:40:57.818Z,17.90
2018-04-12T04:43:25.385Z,23.73
2018-04-12T04:45:52.907Z,28.10
2018-04-12T04:48:20.460Z,21.62
2018-04-12T04:50:48.232Z,23.67
2018-04-12T04:53:15.744Z,20.75
2018-04-12T04:55:43.260Z,23.02
2018-04-12T04:58:11.001Z,22.37
2018-04-12T05:00:38.520Z,24.33
2018-04-12T05:03:06.368Z,30.10
2018-04-12T05:05:34.065Z,29.85
2018-04-12T05:08:01.680Z,34.30
2018-04-12T05:10:29.748Z,27.50
2018-04-12T05:12:57.784Z,23.73
2018-04-12T05:15:25.362Z,23.25
2018-04-12T05:17:52.838Z,24.48
2018-04-12T05:20:20.798Z,25.10
2018-04-12T05:22:48.332Z,27.50
2018-04-12T05:25:16.032Z,29.58
2018-04-12T05:27:43.866Z,24.30
2018-04-12T05:30:11.382Z,24.50
2018-04-12T05:32:38.910Z,20.98
2018-04-12T05:35:06.456Z,31.10
2018-04-12T05:37:34.093Z,23.75
2018-04-12T05:40:01.618Z,23.75
2018-04-12T05:42:29.435Z,27.55
2018-04-12T05:44:57.568Z,27.62
2018-04-12T05:47:25.084Z,26.60
2018-04-12T05:49:52.924Z,25.37
2018-04-12T05:52:20.443Z,28.30
2018-04-12T05:54:47.960Z,25.88
2018-04-12T05:57:15.809Z,24.98
2018-04-12T05:59:43.357Z,18.87
2018-04-12T06:02:10.876Z,24.33
2018-04-12T06:04:38.890Z,26.10
2018-04-12T06:07:06.412Z,22.33
2018-04-12T06:09:34.265Z,22.73
2018-04-12T06:12:02.089Z,25.77
2018-04-12T06:14:29.611Z,21.70
2018-04-12T06:16:57.127Z,30.40
2018-04-12T06:19:24.971Z,25.17
2018-04-12T06:21:52.490Z,23.63
2018-04-12T06:24:20.007Z,23.40
2018-04-12T06:26:47.556Z,23.97
2018-04-12T06:29:15.075Z,20.83
2018-04-12T06:31:42.588Z,30.53
2018-04-12T06:34:10.439Z,24.40
2018-04-12T06:36:37.956Z,22.40
2018-04-12T06:39:05.506Z,23.17
2018-04-12T06:41:33.051Z,21.83
2018-04-12T06:44:00.952Z,17.73
2018-04-12T06:46:28.966Z,25.77
2018-04-12T06:48:56.511Z,21.20
2018-04-12T06:51:24.028Z,21.43
2018-04-12T06:53:51.550Z,19.00
2018-04-12T06:56:19.190Z,21.80
2018-04-12T06:58:47.171Z,21.30
2018-04-12T07:01:14.684Z,24.40
2018-04-12T07:03:42.397Z,21.40
2018-04-12T07:06:09.914Z,26.57
2018-04-12T07:08:37.424Z,26.23
2018-04-12T07:11:05.011Z,20.93
2018-04-12T07:13:32.733Z,34.37
2018-04-12T07:16:00.492Z,28.93
2018-04-12T07:18:28.044Z,27.97
2018-04-12T07:20:55.555Z,23.83
2018-04-12T07:23:23.093Z,25.87
2018-04-12T07:25:58.699Z,24.50
2018-04-12T07:28:26.231Z,27.70
2018-04-12T07:30:53.747Z,23.97
2018-04-12T07:33:25.284Z,52.17
2018-04-12T07:35:54.589Z,57.67
2018-04-12T07:38:22.114Z,21.07
2018-04-12T07:40:49.883Z,23.83
2018-04-12T07:43:17.678Z,24.53
2018-04-12T07:45:45.216Z,23.17
2018-04-12T07:48:13.718Z,35.43
2018-04-12T07:50:41.255Z,23.80
2018-04-12T07:53:08.767Z,23.87
2018-04-12T07:55:36.470Z,19.47
2018-04-12T07:58:03.984Z,24.73
2018-04-12T08:00:31.499Z,27.73
2018-04-12T08:02:59.250Z,29.80
2018-04-12T08:05:26.758Z,24.80
2018-04-12T08:07:54.275Z,24.50
2018-04-12T08:10:21.812Z,25.67
2018-04-12T08:12:49.327Z,20.30
2018-04-12T08:15:16.849Z,20.77
2018-04-12T08:17:44.411Z,25.40
2018-04-12T08:20:11.923Z,25.03
2018-04-12T08:22:39.549Z,24.40
2018-04-12T08:25:07.157Z,24.73
2018-04-12T08:27:34.994Z,19.80
2018-04-12T08:30:02.673Z,20.63
2018-04-12T08:32:30.372Z,23.87
2018-04-12T08:34:57.894Z,18.00
2018-04-12T08:37:25.403Z,26.20
2018-04-12T08:39:53.148Z,11.80
2018-04-12T08:42:20.831Z,5.80
2018-04-12T08:44:48.813Z,6.37
2018-04-12T08:47:16.347Z,6.87
2018-04-12T08:49:43.855Z,7.30
2018-04-12T08:52:11.358Z,5.97
2018-04-12T08:54:39.015Z,5.90
2018-04-12T08:57:06.524Z,8.50
2018-04-12T08:59:34.023Z,6.03
2018-04-12T09:02:01.695Z,9.43
2018-04-12T09:04:29.196Z,7.30
2018-04-12T09:06:56.708Z,10.53
2018-04-12T09:09:24.835Z,8.33
2018-04-12T09:11:52.385Z,4.43
2018-04-12T09:14:19.886Z,8.10
2018-04-12T09:16:47.432Z,5.50
2018-04-12T09:19:14.938Z,3.90
2018-04-12T09:21:42.440Z,6.10
2018-04-12T09:24:10.248Z,9.30
2018-04-12T09:26:38.963Z,5.33
2018-04-12T09:29:06.524Z,4.80
2018-04-12T09:31:34.059Z,9.40
2018-04-12T09:34:01.555Z,4.43
2018-04-12T09:36:29.059Z,4.90
2018-04-12T09:38:56.840Z,7.57
2018-04-12T09:41:24.335Z,6.70
2018-04-12T09:43:51.843Z,6.73
2018-04-12T09:46:19.491Z,3.40
2018-04-12T09:48:47.006Z,7.10
2018-04-12T09:51:14.503Z,5.53
2018-04-12T09:53:42.060Z,8.03
2018-04-12T09:56:10.495Z,8.80
2018-04-12T09:58:38.001Z,4.07
2018-04-12T10:01:11.085Z,6.17
2018-04-12T10:03:38.589Z,3.73
2018-04-12T10:06:06.087Z,3.00
2018-04-12T10:08:33.787Z,3.83
2018-04-12T10:11:01.288Z,7.87
2018-04-12T10:13:28.787Z,3.93
2018-04-12T10:15:57.212Z,4.03
2018-04-12T10:18:24.711Z,6.60
2018-04-12T10:20:52.216Z,6.47
2018-04-12T10:23:19.962Z,5.93
2018-04-12T10:25:47.464Z,8.90
2018-04-12T10:28:14.967Z,10.90
2018-04-12T10:30:42.495Z,4.97
2018-04-12T10:33:10.010Z,7.07
2018-04-12T10:35:37.507Z,3.13
2018-04-12T10:38:05.036Z,9.47
2018-04-12T10:40:32.535Z,3.10
2018-04-12T10:43:00.039Z,2.60
2018-04-12T10:45:27.786Z,3.47
2018-04-12T10:47:55.303Z,3.03
2018-04-12T10:50:22.804Z,1.90
2018-04-12T10:52:50.469Z,1.67
2018-04-12T10:55:18.061Z,5.63
2018-04-12T10:57:46.540Z,2.60
2018-04-12T11:00:14.207Z,5.00
2018-04-12T11:02:41.708Z,1.80
2018-04-12T11:05:09.258Z,2.70
2018-04-12T11:07:37.457Z,1.40
2018-04-12T11:10:04.963Z,1.20
2018-04-12T11:12:32.485Z,2.80
2018-04-12T11:15:00.368Z,2.20
2018-04-12T11:17:27.883Z,1.40
2018-04-12T11:19:55.404Z,1.20
2018-04-12T11:22:23.128Z,2.90
2018-04-12T11:24:50.661Z,5.07
2018-04-12T11:27:18.259Z,1.30
2018-04-12T11:29:45.974Z,1.20
2018-04-12T11:32:13.605Z,5.17
2018-04-12T11:34:41.507Z,1.77
2018-04-12T11:37:09.352Z,1.47
2018-04-12T11:39:36.995Z,1.70
2018-04-12T11:42:04.861Z,2.60
2018-04-12T11:44:32.546Z,3.13
2018-04-12T11:47:01.003Z,1.97
2018-04-12T11:49:28.662Z,3.07
2018-04-12T11:51:56.227Z,2.70
2018-04-12T11:54:23.882Z,5.33
2018-04-12T11:56:51.391Z,5.70
2018-04-12T11:59:19.009Z,3.23
2018-04-12T12:01:46.668Z,2.93
2018-04-12T12:04:14.428Z,6.63
2018-04-12T12:06:42.263Z,2.60
2018-04-12T12:09:10.061Z,3.50
2018-04-12T12:11:37.930Z,2.43
2018-04-12T12:14:05.761Z,1.50
2018-04-12T12:16:33.271Z,2.60
2018-04-12T12:19:00.771Z,7.13
2018-04-12T12:21:28.475Z,4.60
2018-04-12T12:23:56.050Z,1.27
2018-04-12T12:26:23.509Z,5.13
2018-04-12T12:28:51.375Z,6.13
2018-04-12T12:31:18.847Z,3.10
2018-04-12T12:33:46.458Z,3.90
2018-04-12T12:36:14.214Z,2.20
2018-04-12T12:38:41.710Z,7.90
2018-04-12T12:41:09.208Z,2.10
2018-04-12T12:43:37.103Z,2.10
2018-04-12T12:46:04.735Z,1.27
2018-04-12T12:48:32.548Z,1.87
2018-04-12T12:51:00.414Z,1.17
2018-04-12T12:53:28.173Z,2.00
2018-04-12T12:55:55.969Z,6.67
2018-04-12T12:58:23.606Z,2.20
2018-04-12T13:00:51.883Z,1.40
2018-04-12T13:03:19.553Z,5.73
2018-04-12T13:05:47.309Z,3.40
2018-04-12T13:08:14.971Z,2.17
2018-04-12T13:10:42.734Z,2.40
2018-04-12T13:13:10.703Z,1.80
2018-04-12T13:15:38.467Z,3.87
2018-04-12T13:18:06.334Z,2.70
2018-04-12T13:20:34.076Z,1.83
2018-04-12T13:23:01.765Z,5.53
2018-04-12T13:25:29.627Z,1.93
2018-04-12T13:27:58.005Z,3.43
2018-04-12T13:30:25.872Z,2.30
2018-04-12T13:32:53.634Z,11.20
2018-04-12T13:35:21.503Z,2.20
2018-04-12T13:37:49.369Z,1.40
2018-04-12T13:40:17.124Z,3.90
2018-04-12T13:42:44.957Z,4.07
2018-04-12T13:45:12.588Z,7.97
2018-04-12T13:47:42.476Z,2.60
2018-04-12T13:50:10.540Z,10.47
2018-04-12T13:52:48.924Z,3.77
2018-04-12T13:55:16.536Z,3.67
2018-04-12T13:57:44.180Z,2.03
2018-04-12T14:00:12.046Z,6.57
2018-04-12T14:02:40.012Z,11.73
2018-04-12T14:05:07.972Z,10.20
2018-04-12T14:07:36.257Z,12.20
2018-04-12T14:10:04.331Z,28.67
2018-04-12T14:12:32.196Z,27.60
2018-04-12T14:15:00.036Z,22.97
2018-04-12T14:17:28.440Z,18.23
2018-04-12T14:19:56.216Z,26.37
2018-04-12T14:22:23.959Z,15.60
2018-04-12T14:24:52.141Z,10.70
2018-04-12T14:27:19.911Z,13.77
2018-04-12T14:29:47.777Z,19.63
2018-04-12T14:32:15.906Z,16.50
2018-04-12T14:34:43.812Z,19.20
2018-04-12T14:37:11.679Z,18.97
2018-04-12T14:39:39.853Z,14.07
2018-04-12T14:42:08.630Z,15.60
2018-04-12T14:44:36.508Z,18.50
2018-04-12T14:47:05.662Z,17.90
2018-04-12T14:49:34.189Z,19.13
2018-04-12T14:52:03.089Z,19.80
2018-04-12T14:54:32.754Z,17.10
2018-04-12T14:57:02.859Z,22.63
2018-04-12T14:59:30.772Z,15.20
2018-04-12T15:01:59.150Z,14.70
2018-04-12T15:04:27.008Z,14.67
2018-04-12T15:06:55.587Z,13.00
2018-04-12T15:09:24.991Z,18.67
2018-04-12T15:11:53.811Z,14.73
2018-04-12T15:14:23.063Z,14.80
2018-04-12T15:16:51.268Z,19.23
2018-04-12T15:19:19.132Z,16.67
2018-04-12T15:21:46.913Z,21.63
2018-04-12T15:24:15.048Z,16.30
2018-04-12T15:26:42.948Z,14.23
2018-04-12T15:29:10.905Z,17.00
2018-04-12T15:31:38.772Z,33.37
2018-04-12T15:34:06.493Z,19.40
2018-04-12T15:36:34.506Z,10.83
2018-04-12T15:39:02.379Z,17.20
2018-04-12T15:41:30.243Z,11.30
2018-04-12T15:43:58.212Z,11.50
2018-04-12T15:46:26.382Z,17.67
2018-04-12T15:48:54.356Z,11.60
2018-04-12T15:51:22.321Z,13.70
2018-04-12T15:53:51.225Z,14.40
2018-04-12T15:56:19.289Z,21.37
2018-04-12T15:58:47.120Z,30.53
2018-04-12T16:01:15.835Z,15.00
2018-04-12T16:03:44.154Z,13.80
2018-04-12T16:06:12.082Z,13.93
2018-04-12T16:08:41.251Z,14.70
2018-04-12T16:11:09.105Z,13.60
2018-04-12T16:13:36.972Z,13.10
2018-04-12T16:16:04.979Z,14.57
2018-04-12T16:18:32.858Z,14.63
2018-04-12T16:21:00.719Z,14.07
2018-04-12T16:23:29.218Z,13.00
2018-04-12T16:25:57.885Z,15.73
2018-04-12T16:28:26.143Z,26.80
2018-04-12T16:30:54.842Z,24.87
2018-04-12T16:33:22.708Z,21.00
2018-04-12T16:35:50.575Z,31.17
2018-04-12T16:38:18.896Z,24.53
2018-04-12T16:40:46.822Z,20.30
2018-04-12T16:43:14.685Z,20.77
2018-04-12T16:45:42.822Z,23.67
2018-04-12T16:48:10.728Z,18.87
2018-04-12T16:50:38.906Z,23.57
2018-04-12T16:53:07.049Z,13.80
2018-04-12T16:55:35.782Z,18.47
2018-04-12T16:58:03.721Z,19.63
2018-04-12T17:00:32.319Z,18.10
2018-04-12T17:03:00.146Z,20.23
2018-04-12T17:05:28.312Z,22.17
2018-04-12T17:07:56.438Z,24.33
2018-04-12T17:10:24.596Z,26.07
2018-04-12T17:12:53.589Z,23.50
2018-04-12T17:15:21.456Z,23.97
2018-04-12T17:17:49.426Z,18.57
2018-04-12T17:20:17.284Z,28.03
2018-04-12T17:22:45.363Z,28.93
2018-04-12T17:25:13.846Z,17.83
2018-04-12T17:27:42.024Z,24.87
2018-04-12T17:30:11.016Z,23.40
2018-04-12T17:32:38.853Z,19.87
2018-04-12T17:35:06.694Z,27.83
2018-04-12T17:37:34.829Z,29.17
2018-04-12T17:40:02.579Z,19.10
2018-04-12T17:42:30.721Z,19.80
2018-04-12T17:44:58.591Z,23.70
2018-04-12T17:47:26.487Z,17.33
2018-04-12T17:49:54.663Z,21.70
2018-04-12T17:52:22.791Z,17.40
2018-04-12T17:54:50.657Z,21.53
2018-04-12T17:57:18.568Z,21.40
2018-04-12T17:59:46.539Z,20.27
2018-04-12T18:02:14.882Z,19.63
2018-04-12T18:04:42.750Z,23.03
2018-04-12T18:07:10.751Z,28.20
2018-04-12T18:09:38.623Z,22.07
2018-04-12T18:12:06.492Z,16.70
2018-04-12T18:14:34.784Z,26.47
2018-04-12T18:17:02.625Z,23.53
2018-04-12T18:19:30.655Z,29.53
2018-04-12T18:21:58.564Z,23.03
2018-04-12T18:24:28.500Z,21.90
2018-04-12T18:26:56.304Z,26.90
2018-04-12T18:29:24.416Z,21.80
2018-04-12T18:31:53.207Z,23.63
2018-04-12T18:34:21.685Z,24.30
2018-04-12T18:36:50.065Z,17.97
2018-04-12T18:39:18.241Z,22.17
2018-04-12T18:41:46.519Z,28.10
2018-04-12T18:44:15.200Z,24.97
2018-04-12T18:46:43.070Z,21.73
2018-04-12T18:49:11.562Z,30.57
2018-04-12T18:51:39.754Z,29.67
2018-04-12T18:54:07.844Z,25.27
2018-04-12T18:56:36.588Z,27.80
2018-04-12T18:59:04.654Z,17.50
2018-04-12T19:01:32.522Z,16.77
2018-04-12T19:04:00.707Z,19.20
2018-04-12T19:06:29.788Z,23.20
2018-04-12T19:08:57.655Z,20.70
2018-04-12T19:11:25.627Z,22.67
2018-04-12T19:13:53.608Z,18.27
2018-04-12T19:16:21.369Z,23.83
2018-04-12T19:18:49.239Z,24.47
2018-04-12T19:21:17.259Z,24.30
2018-04-12T19:23:45.263Z,24.23
2018-04-12T19:26:13.188Z,21.97
2018-04-12T19:28:41.409Z,33.93
2018-04-12T19:31:09.767Z,20.30
2018-04-12T19:33:42.798Z,19.57
2018-04-12T19:36:10.831Z,24.47
2018-04-12T19:38:38.709Z,20.03
2018-04-12T19:41:09.218Z,24.30
2018-04-12T19:43:38.235Z,24.37
2018-04-12T19:46:07.041Z,28.50
2018-04-12T19:48:34.992Z,29.47
2018-04-12T19:51:02.936Z,34.03
2018-04-12T19:53:31.130Z,48.60
2018-04-12T19:55:59.056Z,61.03
2018-04-12T19:58:28.195Z,45.07
2018-04-12T20:00:57.134Z,41.20
2018-04-12T20:03:25.464Z,35.20
2018-04-12T20:05:53.335Z,32.70
2018-04-12T20:08:21.607Z,42.53
2018-04-12T20:10:49.888Z,48.03
2018-04-12T20:13:18.238Z,41.63
2018-04-12T20:15:47.665Z,73.90
2018-04-12T20:18:15.532Z,66.73
2018-04-12T20:20:43.296Z,46.77
2018-04-12T20:23:11.673Z,43.10
2018-04-12T20:25:39.949Z,39.83
2018-04-12T20:28:08.739Z,39.20
2018-04-12T20:30:37.945Z,42.97
2018-04-12T20:33:06.827Z,53.17
2018-04-12T20:35:34.694Z,37.13
2018-04-12T20:38:03.079Z,42.27
2018-04-12T20:40:30.938Z,27.90
2018-04-12T20:42:58.803Z,40.17
2018-04-12T20:45:27.592Z,25.40
2018-04-12T20:47:55.824Z,27.43
2018-04-12T20:50:23.734Z,32.57
2018-04-12T20:52:51.703Z,33.13
2018-04-12T20:55:19.571Z,33.17
2018-04-12T20:57:47.438Z,24.20
2018-04-12T21:00:15.386Z,29.87
2018-04-12T21:02:43.278Z,23.67
2018-04-12T21:05:11.548Z,33.43
2018-04-12T21:07:39.722Z,24.77
2018-04-12T21:10:07.591Z,30.80
2018-04-12T21:12:35.458Z,34.83
2018-04-12T21:15:04.049Z,22.13
2018-04-12T21:17:31.905Z,34.10
2018-04-12T21:22:32.780Z,38.90
2018-04-12T21:25:00.627Z,33.30
2018-04-12T21:27:28.491Z,46.97
2018-04-12T21:29:56.975Z,38.72
2018-04-12T21:32:24.839Z,47.93
2018-04-12T21:34:53.424Z,42.20
2018-04-12T21:37:21.301Z,40.30
2018-04-12T21:39:48.941Z,28.20
2018-04-12T21:42:16.533Z,27.50
2018-04-12T21:44:44.583Z,39.78
2018-04-12T21:47:12.213Z,30.50
2018-04-12T21:49:40.040Z,32.90
2018-04-12T21:52:07.748Z,33.97
2018-04-12T21:54:35.331Z,24.70
2018-04-12T21:57:03.082Z,36.97
2018-04-12T21:59:30.965Z,38.92
2018-04-12T22:01:58.613Z,24.23
2018-04-12T22:04:26.195Z,28.67
2018-04-12T22:06:54.065Z,25.20
2018-04-12T22:09:21.623Z,28.33
2018-04-12T22:11:49.131Z,41.78
2018-04-12T22:14:16.800Z,23.00
2018-04-12T22:16:44.315Z,32.97
2018-04-12T22:19:11.911Z,27.13
2018-04-12T22:21:39.806Z,37.85
2018-04-12T22:24:07.374Z,38.33
2018-04-12T22:26:34.919Z,26.40
2018-04-12T22:29:02.535Z,27.52
2018-04-12T22:31:30.257Z,26.70
2018-04-12T22:33:57.816Z,27.60
2018-04-12T22:36:25.682Z,25.80
2018-04-12T22:38:53.451Z,25.75
2018-04-12T22:41:21.086Z,31.77
2018-04-12T22:43:49.694Z,46.97
2018-04-12T22:46:17.259Z,32.95
2018-04-12T22:48:44.768Z,28.77
2018-04-12T22:51:12.556Z,33.90
2018-04-12T22:53:40.071Z,25.08
2018-04-12T22:56:07.600Z,39.10
2018-04-12T22:58:35.531Z,32.28
2018-04-12T23:01:03.049Z,42.90
2018-04-12T23:03:30.581Z,40.72
2018-04-12T23:05:58.120Z,34.10
2018-04-12T23:08:25.636Z,42.58
2018-04-12T23:10:53.154Z,40.35
2018-04-12T23:13:20.779Z,30.27
2018-04-12T23:15:48.296Z,30.35
2018-04-12T23:18:15.816Z,36.80
2018-04-12T23:20:43.462Z,26.37
2018-04-12T23:23:11.003Z,30.73
2018-04-12T23:25:38.661Z,32.58
2018-04-12T23:28:06.911Z,24.00
2018-04-12T23:30:34.435Z,27.25
2018-04-12T23:33:01.949Z,28.27
2018-04-12T23:35:29.613Z,29.50
2018-04-12T23:37:58.212Z,32.78
2018-04-12T23:40:25.727Z,41.83
2018-04-12T23:42:53.539Z,25.40
2018-04-12T23:45:21.052Z,25.20
2018-04-12T23:47:48.562Z,35.75
2018-04-12T23:50:16.427Z,34.60
2018-04-12T23:52:43.943Z,29.60
2018-04-12T23:55:11.462Z,35.72
2018-04-12T23:57:39.019Z,28.70
